Time;durP1;ratioP1;P1;durP2;ratioP2;P2;SDS_P1;SDS_P2;PMS_P1;PMS_P2;Temp;Humidity;BMP_temperature;BMP_pressure;BME280_temperature;BME280_humidity;BME280_pressure;Samples;Min_cycle;Max_cycle;Signal;HPM_P1;HPM_P2
2022/05/04 00:00:43;;;;;;;;;;;14.50;99.90;;;;;;5011347;28;19909;-77
2022/05/04 00:03:13;;;;;;;;;;;14.50;99.90;;;;;;5012032;28;19916;-78
2022/05/04 00:06:07;;;;;;;;;;;14.30;99.90;;;;;;5012799;28;19983;-78
2022/05/04 00:08:43;;;;;;;;;;;14.30;99.90;;;;;;5015793;28;19910;-78
2022/05/04 00:11:20;;;;;;;;;;;14.20;99.90;;;;;;5015912;28;19910;-77
2022/05/04 00:13:49;;;;;;;;;;;14.10;99.90;;;;;;5014806;28;19951;-78
2022/05/04 00:16:20;;;;;;;;;;;14.10;99.90;;;;;;5015535;28;20039;-78
2022/05/04 00:18:55;;;;;;;;;;;14.00;99.90;;;;;;4983871;28;20357;-78
2022/05/04 00:21:21;;;;;;;;;;;13.90;99.90;;;;;;4998437;28;19905;-78
2022/05/04 00:23:55;;;;;;;;;;;13.90;99.90;;;;;;5015588;28;19916;-77
2022/05/04 00:26:26;;;;;;;;;;;13.80;99.90;;;;;;5015511;28;19952;-78
2022/05/04 00:28:51;;;;;;;;;;;13.80;99.90;;;;;;5015380;28;19905;-77
2022/05/04 00:31:37;;;;;;;;;;;13.80;99.90;;;;;;5015257;28;19913;-78
2022/05/04 00:34:08;;;;;;;;;;;13.70;99.90;;;;;;4995707;28;19917;-77
2022/05/04 00:49:19;;;;;;;;;;;13.70;99.90;;;;;;4996162;28;19940;-89
2022/05/04 00:51:45;;;;;;;;;;;13.60;99.90;;;;;;4978867;28;19910;-78
2022/05/04 00:54:11;;;;;;;;;;;13.60;99.90;;;;;;4997359;28;19917;-78
2022/05/04 00:56:44;;;;;;;;;;;13.60;99.90;;;;;;5006058;28;19916;-78
2022/05/04 00:59:26;;;;;;;;;;;13.60;99.90;;;;;;5014766;28;19910;-78
2022/05/04 01:01:56;;;;;;;;;;;13.60;99.90;;;;;;4998016;28;19909;-77
2022/05/04 01:04:26;;;;;;;;;;;13.60;99.90;;;;;;4991494;28;19949;-77
2022/05/04 01:07:02;;;;;;;;;;;13.60;99.90;;;;;;4997228;28;19996;-78
2022/05/04 01:09:37;;;;;;;;;;;13.60;99.90;;;;;;5014799;28;19933;-78
2022/05/04 01:12:13;;;;;;;;;;;13.50;99.90;;;;;;5014496;28;19909;-77
2022/05/04 01:14:55;;;;;;;;;;;13.50;99.90;;;;;;4995490;28;19910;-78
2022/05/04 01:17:28;;;;;;;;;;;13.50;99.90;;;;;;5002151;28;19905;-78
2022/05/04 01:20:13;;;;;;;;;;;13.50;99.90;;;;;;5014750;28;19956;-77
2022/05/04 01:22:39;;;;;;;;;;;13.50;99.90;;;;;;4980800;28;19916;-78
2022/05/04 01:25:09;;;;;;;;;;;13.40;99.90;;;;;;5007120;28;19909;-78
2022/05/04 01:27:50;;;;;;;;;;;13.40;99.90;;;;;;5014786;28;19906;-77
2022/05/04 01:30:32;;;;;;;;;;;13.30;99.90;;;;;;5014587;28;19905;-77
2022/05/04 01:33:19;;;;;;;;;;;13.30;99.90;;;;;;5013676;28;19959;-78
2022/05/04 01:35:50;;;;;;;;;;;13.30;99.90;;;;;;4996534;28;20277;-77
2022/05/04 01:38:20;;;;;;;;;;;13.30;99.90;;;;;;4984443;28;20304;-78
2022/05/04 01:40:56;;;;;;;;;;;13.20;99.90;;;;;;4995014;28;19945;-77
2022/05/04 01:43:21;;;;;;;;;;;13.10;99.90;;;;;;5012625;28;19905;-77
2022/05/04 01:46:02;;;;;;;;;;;13.10;99.90;;;;;;5009906;28;19960;-77
2022/05/04 01:48:27;;;;;;;;;;;13.10;99.90;;;;;;5014321;28;19960;-77
2022/05/04 01:50:53;;;;;;;;;;;13.00;99.90;;;;;;5004695;28;19961;-77
2022/05/04 01:53:18;;;;;;;;;;;13.00;99.90;;;;;;4997164;28;19971;-89
2022/05/04 01:55:44;;;;;;;;;;;13.00;99.90;;;;;;4991969;28;19910;-89
2022/05/04 02:01:26;;;;;;;;;;;12.90;99.90;;;;;;5014545;28;19932;-89
2022/05/04 02:06:56;;;;;;;;;;;12.80;99.90;;;;;;5011625;28;19912;-89
2022/05/04 02:09:27;;;;;;;;;;;12.80;99.90;;;;;;4997484;28;19905;-89
2022/05/04 02:15:26;;;;;;;;;;;12.80;99.90;;;;;;5012779;28;19956;-89
2022/05/04 02:21:13;;;;;;;;;;;12.80;99.90;;;;;;5014461;28;20271;-89
2022/05/04 02:23:39;;;;;;;;;;;12.80;99.90;;;;;;4983134;28;19910;-78
2022/05/04 02:26:07;;;;;;;;;;;12.90;99.90;;;;;;5005809;28;19912;-77
2022/05/04 02:28:50;;;;;;;;;;;12.90;99.90;;;;;;5013910;28;19906;-77
2022/05/04 02:31:20;;;;;;;;;;;12.90;99.90;;;;;;5008174;28;19920;-77
2022/05/04 02:33:49;;;;;;;;;;;12.90;99.90;;;;;;5013549;28;19996;-77
2022/05/04 02:48:08;;;;;;;;;;;13.00;99.90;;;;;;5017983;28;19920;-89
2022/05/04 02:50:55;;;;;;;;;;;13.00;99.90;;;;;;5000338;28;19909;-89
2022/05/04 02:53:21;;;;;;;;;;;13.00;99.90;;;;;;5000223;28;19921;-77
2022/05/04 02:55:47;;;;;;;;;;;13.00;99.90;;;;;;5017275;28;19905;-77
2022/05/04 02:58:12;;;;;;;;;;;13.00;99.90;;;;;;5017399;28;19913;-78
2022/05/04 03:00:38;;;;;;;;;;;13.00;99.90;;;;;;5017146;28;19913;-78
2022/05/04 03:03:04;;;;;;;;;;;13.00;99.90;;;;;;5017114;28;19996;-78
2022/05/04 03:05:29;;;;;;;;;;;13.00;99.90;;;;;;5017296;28;19975;-77
2022/05/04 03:07:56;;;;;;;;;;;12.90;99.90;;;;;;5016905;28;19905;-78
2022/05/04 03:10:26;;;;;;;;;;;12.90;99.90;;;;;;5017139;28;19955;-77
2022/05/04 03:12:51;;;;;;;;;;;13.00;99.90;;;;;;5014339;28;19913;-77
2022/05/04 03:15:17;;;;;;;;;;;13.00;99.90;;;;;;5015077;28;19916;-77
2022/05/04 03:17:42;;;;;;;;;;;13.00;99.90;;;;;;5016853;28;19916;-77
2022/05/04 03:20:14;;;;;;;;;;;13.00;99.90;;;;;;5014001;28;19932;-78
2022/05/04 03:25:55;;;;;;;;;;;13.00;99.90;;;;;;5005879;28;19928;-89
2022/05/04 03:28:55;;;;;;;;;;;13.00;99.90;;;;;;4999640;28;19915;-89
2022/05/04 03:31:26;;;;;;;;;;;12.90;99.90;;;;;;4999786;28;19909;-89
2022/05/04 03:33:56;;;;;;;;;;;12.90;99.90;;;;;;5011862;28;19952;-89
2022/05/04 03:45:38;;;;;;;;;;;12.90;99.90;;;;;;5016123;28;19932;-88
2022/05/04 03:48:03;;;;;;;;;;;12.90;99.90;;;;;;5015838;28;19913;-88
2022/05/04 03:50:56;;;;;;;;;;;12.90;99.90;;;;;;5016769;28;19935;-89
2022/05/04 03:56:56;;;;;;;;;;;12.90;99.90;;;;;;4997112;28;19921;-88
2022/05/04 03:59:56;;;;;;;;;;;12.90;99.90;;;;;;4995869;28;19917;-88
2022/05/04 04:02:56;;;;;;;;;;;13.00;99.90;;;;;;4991529;28;19905;-88
2022/05/04 04:05:28;;;;;;;;;;;12.90;99.90;;;;;;4999248;28;20353;-89
2022/05/04 04:07:56;;;;;;;;;;;12.90;99.90;;;;;;4999364;28;19905;-89
2022/05/04 04:10:26;;;;;;;;;;;12.90;99.90;;;;;;4998537;28;19910;-89
2022/05/04 04:13:02;;;;;;;;;;;12.90;99.90;;;;;;4998776;28;19910;-89
2022/05/04 04:18:55;;;;;;;;;;;12.90;99.90;;;;;;5002699;28;19917;-89
2022/05/04 04:21:55;;;;;;;;;;;12.90;99.90;;;;;;4999054;28;19905;-89
2022/05/04 04:24:26;;;;;;;;;;;12.90;99.90;;;;;;4998965;28;19912;-89
2022/05/04 04:29:54;;;;;;;;;;;12.80;99.90;;;;;;5014315;28;19952;-89
2022/05/04 04:32:26;;;;;;;;;;;12.80;99.90;;;;;;4998710;28;19913;-89
2022/05/04 04:35:25;;;;;;;;;;;12.80;99.90;;;;;;4990399;28;19905;-89
2022/05/04 04:37:56;;;;;;;;;;;12.80;99.90;;;;;;4998186;28;19909;-88
2022/05/04 04:40:26;;;;;;;;;;;12.80;99.90;;;;;;5016520;28;19996;-89
2022/05/04 04:42:56;;;;;;;;;;;12.80;99.90;;;;;;4998525;28;19913;-89
2022/05/04 04:45:26;;;;;;;;;;;12.80;99.90;;;;;;4998246;28;19905;-88
2022/05/04 04:47:56;;;;;;;;;;;12.80;99.90;;;;;;4998291;28;19913;-89
2022/05/04 04:50:50;;;;;;;;;;;12.80;99.90;;;;;;4998328;28;19914;-89
2022/05/04 04:56:56;;;;;;;;;;;12.80;99.90;;;;;;5002640;28;19962;-89
2022/05/04 05:02:26;;;;;;;;;;;12.80;99.90;;;;;;5015352;28;19940;-89
2022/05/04 05:04:56;;;;;;;;;;;12.90;99.90;;;;;;4996572;28;19905;-89
2022/05/04 05:07:26;;;;;;;;;;;12.90;99.90;;;;;;4998250;28;19909;-89
2022/05/04 05:09:56;;;;;;;;;;;12.90;99.90;;;;;;5009883;28;19956;-77
2022/05/04 05:12:26;;;;;;;;;;;13.00;99.90;;;;;;5014964;28;19917;-77
2022/05/04 05:17:38;;;;;;;;;;;13.10;99.90;;;;;;5015079;28;19916;-77
2022/05/04 05:20:25;;;;;;;;;;;13.30;99.90;;;;;;5014733;28;19906;-77
2022/05/04 05:23:08;;;;;;;;;;;13.40;99.90;;;;;;5012838;28;19909;-77
2022/05/04 05:28:38;;;;;;;;;;;13.70;99.90;;;;;;5015232;28;19912;-89
2022/05/04 05:34:06;;;;;;;;;;;14.00;99.90;;;;;;4995437;28;19932;-76
2022/05/04 05:36:32;;;;;;;;;;;14.30;99.90;;;;;;5008041;28;20328;-77
2022/05/04 05:38:57;;;;;;;;;;;14.20;99.90;;;;;;5012550;28;19920;-71
2022/05/04 05:41:23;;;;;;;;;;;14.40;99.90;;;;;;5008132;28;19936;-71
2022/05/04 05:43:50;;;;;;;;;;;14.50;99.90;;;;;;5009031;28;19910;-79
2022/05/04 05:46:20;;;;;;;;;;;14.60;99.90;;;;;;5010096;28;19925;-75
2022/05/04 05:48:48;;;;;;;;;;;14.70;99.90;;;;;;5003332;28;19996;-75
2022/05/04 05:51:14;;;;;;;;;;;14.80;99.90;;;;;;5012096;28;20323;-75
2022/05/04 05:53:44;;;;;;;;;;;14.90;99.90;;;;;;5014833;28;19909;-75
2022/05/04 05:56:17;;;;;;;;;;;15.00;99.90;;;;;;5014808;28;19905;-87
2022/05/04 05:58:56;;;;;;;;;;;15.10;99.90;;;;;;5008075;28;19914;-79
2022/05/04 06:01:38;;;;;;;;;;;15.30;99.90;;;;;;4971734;28;19910;-78
2022/05/04 06:04:14;;;;;;;;;;;15.40;99.90;;;;;;4956642;28;20391;-77
2022/05/04 06:06:44;;;;;;;;;;;15.50;99.90;;;;;;4965151;28;19914;-78
2022/05/04 06:09:44;;;;;;;;;;;15.70;99.90;;;;;;4973491;28;19934;-77
2022/05/04 06:12:14;;;;;;;;;;;15.80;99.90;;;;;;4974780;28;19964;-77
2022/05/04 06:14:44;;;;;;;;;;;15.90;99.90;;;;;;4976532;28;19910;-78
2022/05/04 06:17:14;;;;;;;;;;;16.00;99.90;;;;;;4960758;28;20366;-80
2022/05/04 06:28:56;;;;;;;;;;;16.20;99.90;;;;;;4976814;28;20451;-79
2022/05/04 06:34:14;;;;;;;;;;;16.20;99.90;;;;;;4976302;28;20021;-76
2022/05/04 06:36:44;;;;;;;;;;;16.20;99.90;;;;;;4958646;28;20316;-76
2022/05/04 06:39:15;;;;;;;;;;;16.20;99.90;;;;;;5002235;28;19929;-77
2022/05/04 06:41:56;;;;;;;;;;;16.20;99.90;;;;;;5016106;28;20000;-76
2022/05/04 06:44:26;;;;;;;;;;;16.20;99.90;;;;;;5016542;28;19909;-77
2022/05/04 06:47:14;;;;;;;;;;;16.20;99.90;;;;;;5010832;28;19996;-76
2022/05/04 06:49:44;;;;;;;;;;;16.20;99.90;;;;;;4994969;28;19963;-77
2022/05/04 06:52:09;;;;;;;;;;;16.20;99.90;;;;;;5017407;28;19916;-76
2022/05/04 06:54:35;;;;;;;;;;;16.20;99.90;;;;;;5017663;28;19905;-77
2022/05/04 06:57:01;;;;;;;;;;;16.20;99.90;;;;;;5015621;28;19909;-77
2022/05/04 06:59:27;;;;;;;;;;;16.20;99.90;;;;;;5010943;28;19916;-80
2022/05/04 07:01:53;;;;;;;;;;;16.20;99.90;;;;;;5017160;28;19999;-76
2022/05/04 07:04:26;;;;;;;;;;;16.20;99.90;;;;;;5012406;28;19957;-76
2022/05/04 07:06:56;;;;;;;;;;;16.30;99.90;;;;;;5008861;28;19909;-76
2022/05/04 07:09:26;;;;;;;;;;;16.30;99.90;;;;;;5018611;28;19960;-76
2022/05/04 07:11:57;;;;;;;;;;;16.30;99.90;;;;;;5016790;28;19909;-76
2022/05/04 07:14:51;;;;;;;;;;;16.40;99.90;;;;;;5017087;28;19913;-76
2022/05/04 07:17:17;;;;;;;;;;;16.40;99.90;;;;;;5017877;28;19909;-76
2022/05/04 07:19:43;;;;;;;;;;;16.50;99.90;;;;;;5006867;28;19917;-76
2022/05/04 07:22:09;;;;;;;;;;;16.50;99.90;;;;;;5020368;28;19939;-76
2022/05/04 07:24:38;;;;;;;;;;;16.50;99.90;;;;;;4990243;28;19913;-79
2022/05/04 07:27:03;;;;;;;;;;;16.50;99.90;;;;;;5011943;28;19937;-76
2022/05/04 07:29:29;;;;;;;;;;;16.50;99.90;;;;;;5016070;28;19913;-76
2022/05/04 07:31:55;;;;;;;;;;;16.50;99.90;;;;;;5016631;28;20300;-76
2022/05/04 07:34:50;;;;;;;;;;;16.50;99.90;;;;;;5016811;28;19913;-76
2022/05/04 07:37:15;;;;;;;;;;;16.50;99.90;;;;;;5016429;28;20303;-76
2022/05/04 07:42:32;;;;;;;;;;;16.50;99.90;;;;;;5013655;28;19963;-76
2022/05/04 07:44:59;;;;;;;;;;;16.60;99.90;;;;;;5014753;28;19912;-76
2022/05/04 07:47:26;;;;;;;;;;;16.70;99.90;;;;;;5011663;28;20376;-76
2022/05/04 07:49:52;;;;;;;;;;;16.80;99.90;;;;;;5016115;28;19913;-76
2022/05/04 07:52:17;;;;;;;;;;;17.00;99.90;;;;;;5015921;28;19917;-76
2022/05/04 07:54:43;;;;;;;;;;;17.20;99.90;;;;;;5015722;28;20028;-77
2022/05/04 07:57:26;;;;;;;;;;;17.30;99.90;;;;;;5016510;28;19909;-83
2022/05/04 08:05:43;;;;;;;;;;;18.00;99.90;;;;;;5003398;28;19920;-83
2022/05/04 08:08:09;;;;;;;;;;;18.10;99.90;;;;;;5014998;28;19905;-83
2022/05/04 08:10:34;;;;;;;;;;;18.20;99.90;;;;;;5015209;28;19921;-83
2022/05/04 08:13:00;;;;;;;;;;;18.30;99.90;;;;;;5005032;28;19967;-83
2022/05/04 08:15:26;;;;;;;;;;;18.40;99.90;;;;;;4996752;28;19906;-83
2022/05/04 08:18:05;;;;;;;;;;;;;;;;;;;;;
2022/05/04 08:20:31;;;;;;;;;;;18.80;99.90;;;;;;5014815;28;19906;-83
2022/05/04 08:22:57;;;;;;;;;;;18.90;99.90;;;;;;5014627;28;20423;-83
2022/05/04 08:25:23;;;;;;;;;;;19.00;99.90;;;;;;5012211;28;19916;-83
2022/05/04 08:27:49;;;;;;;;;;;19.20;99.90;;;;;;5014856;28;19905;-83
2022/05/04 08:30:16;;;;;;;;;;;19.40;99.90;;;;;;5014466;28;19906;-83
2022/05/04 08:32:45;;;;;;;;;;;19.60;99.90;;;;;;5013986;28;20008;-83
2022/05/04 08:35:14;;;;;;;;;;;19.90;99.90;;;;;;5014568;28;20000;-83
2022/05/04 08:37:56;;;;;;;;;;;20.00;99.90;;;;;;5015323;28;19951;-83
2022/05/04 08:43:24;;;;;;;;;;;20.30;99.90;;;;;;5012895;28;20338;-77
2022/05/04 08:45:58;;;;;;;;;;;20.60;99.90;;;;;;5013110;28;19909;-77
2022/05/04 08:48:50;;;;;;;;;;;20.80;99.90;;;;;;5014339;28;19915;-77
2022/05/04 08:51:20;;;;;;;;;;;20.90;99.90;;;;;;5014081;28;19919;-77
2022/05/04 08:53:46;;;;;;;;;;;21.00;99.90;;;;;;4996602;28;19917;-77
2022/05/04 08:56:20;;;;;;;;;;;21.10;99.90;;;;;;5012309;28;20432;-77
2022/05/04 08:58:45;;;;;;;;;;;21.00;99.90;;;;;;5014195;28;19909;-77
2022/05/04 09:01:14;;;;;;;;;;;20.90;99.90;;;;;;5012775;28;20248;-77
2022/05/04 09:03:57;;;;;;;;;;;21.00;99.90;;;;;;5013674;28;20391;-77
2022/05/04 09:06:26;;;;;;;;;;;21.00;99.90;;;;;;5013452;28;19917;-77
2022/05/04 09:08:53;;;;;;;;;;;21.20;99.90;;;;;;5014403;28;20012;-77
2022/05/04 09:11:56;;;;;;;;;;;21.40;99.90;;;;;;5015408;28;20020;-82
2022/05/04 09:17:57;;;;;;;;;;;21.50;99.90;;;;;;5014428;28;20402;-83
2022/05/04 09:20:53;;;;;;;;;;;21.40;99.90;;;;;;5014202;28;19913;-84
2022/05/04 09:23:44;;;;;;;;;;;21.30;99.90;;;;;;5014077;28;19909;-83
2022/05/04 09:32:15;;;;;;;;;;;21.10;99.90;;;;;;5014406;28;19932;-83
2022/05/04 09:34:56;;;;;;;;;;;20.90;99.90;;;;;;4995296;28;20365;-83
2022/05/04 09:46:14;;;;;;;;;;;20.70;99.90;;;;;;5000873;28;19948;-75
2022/05/04 09:48:40;;;;;;;;;;;20.60;99.90;;;;;;5014115;28;19913;-75
2022/05/04 09:51:08;;;;;;;;;;;20.70;99.90;;;;;;5012536;28;20004;-74
2022/05/04 09:53:35;;;;;;;;;;;20.80;99.90;;;;;;5014405;28;19913;-75
2022/05/04 09:56:09;;;;;;;;;;;20.80;99.90;;;;;;5013365;28;19963;-75
2022/05/04 09:58:35;;;;;;;;;;;20.70;99.90;;;;;;4995177;28;19956;-75
2022/05/04 10:01:03;;;;;;;;;;;20.70;99.90;;;;;;4999562;28;19906;-74
2022/05/04 10:03:32;;;;;;;;;;;20.80;99.90;;;;;;5014369;28;20005;-75
2022/05/04 10:06:15;;;;;;;;;;;20.80;99.90;;;;;;5011664;28;20443;-79
2022/05/04 10:08:41;;;;;;;;;;;21.00;99.90;;;;;;5013557;28;19952;-79
2022/05/04 10:11:07;;;;;;;;;;;21.00;99.90;;;;;;5013685;28;19909;-75
2022/05/04 10:13:38;;;;;;;;;;;21.10;99.90;;;;;;5014507;28;19909;-74
2022/05/04 10:16:06;;;;;;;;;;;21.10;99.90;;;;;;5014026;28;20410;-74
2022/05/04 10:18:32;;;;;;;;;;;21.20;99.90;;;;;;4980833;28;19968;-74
2022/05/04 10:21:05;;;;;;;;;;;21.10;99.90;;;;;;5010652;28;19913;-74
2022/05/04 10:23:35;;;;;;;;;;;21.20;99.90;;;;;;5008472;28;19915;-74
2022/05/04 10:26:03;;;;;;;;;;;21.20;99.90;;;;;;5014007;28;19906;-74
2022/05/04 10:28:35;;;;;;;;;;;21.40;99.90;;;;;;5013976;28;20245;-71
2022/05/04 10:31:01;;;;;;;;;;;21.50;99.90;;;;;;5013164;28;19917;-72
2022/05/04 10:33:33;;;;;;;;;;;21.60;99.90;;;;;;5006756;28;20264;-71
2022/05/04 10:36:18;;;;;;;;;;;21.70;99.90;;;;;;5003169;28;19910;-71
2022/05/04 10:41:56;;;;;;;;;;;21.80;99.90;;;;;;5014180;28;20280;-86
2022/05/04 10:50:45;;;;;;;;;;;21.90;99.90;;;;;;5009562;28;19972;-86
2022/05/04 10:53:27;;;;;;;;;;;21.90;99.90;;;;;;5008869;28;20063;-87
2022/05/04 10:59:08;;;;;;;;;;;22.10;99.90;;;;;;5017122;28;19912;-85
2022/05/04 11:01:51;;;;;;;;;;;22.20;99.90;;;;;;5000737;28;19992;-85
2022/05/04 11:04:38;;;;;;;;;;;22.30;99.90;;;;;;5017576;28;19956;-85
2022/05/04 11:07:07;;;;;;;;;;;22.40;99.90;;;;;;5000199;28;19916;-70
2022/05/04 11:09:37;;;;;;;;;;;22.30;99.90;;;;;;5016819;28;19909;-71
2022/05/04 11:12:04;;;;;;;;;;;22.50;99.90;;;;;;5012357;28;20308;-71
2022/05/04 11:14:32;;;;;;;;;;;22.60;99.90;;;;;;5010334;28;19976;-71
2022/05/04 11:16:58;;;;;;;;;;;22.60;99.90;;;;;;5016632;28;19953;-71
2022/05/04 11:19:28;;;;;;;;;;;22.60;99.90;;;;;;5016558;28;19995;-71
2022/05/04 11:21:54;;;;;;;;;;;22.70;99.90;;;;;;5016792;28;19960;-71
2022/05/04 11:24:20;;;;;;;;;;;22.80;99.90;;;;;;5014416;28;19916;-70
2022/05/04 11:26:52;;;;;;;;;;;22.90;99.90;;;;;;5015957;28;19905;-70
2022/05/04 11:29:50;;;;;;;;;;;22.70;99.90;;;;;;5016191;28;20276;-79
2022/05/04 11:32:38;;;;;;;;;;;22.50;99.90;;;;;;5016540;28;19968;-80
2022/05/04 11:35:28;;;;;;;;;;;22.60;99.90;;;;;;5008999;28;19920;-79
2022/05/04 11:37:53;;;;;;;;;;;22.90;99.90;;;;;;4999953;28;20396;-80
2022/05/04 11:40:20;;;;;;;;;;;22.90;99.90;;;;;;5016342;28;19921;-80
2022/05/04 11:42:46;;;;;;;;;;;22.80;99.90;;;;;;5016475;28;19906;-70
2022/05/04 11:45:13;;;;;;;;;;;22.70;99.90;;;;;;5015442;28;19909;-84
2022/05/04 11:47:44;;;;;;;;;;;22.70;99.90;;;;;;5015150;28;20383;-83
2022/05/04 11:50:32;;;;;;;;;;;22.60;99.90;;;;;;5016308;28;19913;-83
2022/05/04 11:53:26;;;;;;;;;;;22.50;99.90;;;;;;5011847;28;20044;-82
2022/05/04 11:56:05;;;;;;;;;;;22.50;99.90;;;;;;5012641;28;19928;-83
2022/05/04 11:58:34;;;;;;;;;;;22.50;99.90;;;;;;5016522;28;19906;-77
2022/05/04 12:01:00;;;;;;;;;;;22.70;99.90;;;;;;5016371;28;19905;-77
2022/05/04 12:03:26;;;;;;;;;;;22.90;99.90;;;;;;4995319;28;19910;-79
2022/05/04 12:05:56;;;;;;;;;;;23.20;99.90;;;;;;4998397;28;20398;-79
2022/05/04 12:08:39;;;;;;;;;;;23.30;99.90;;;;;;5015147;28;19916;-78
2022/05/04 12:11:20;;;;;;;;;;;23.70;99.90;;;;;;4999314;28;21546;-79
2022/05/04 12:13:46;;;;;;;;;;;23.80;99.90;;;;;;5011336;28;19951;-83
2022/05/04 12:16:20;;;;;;;;;;;24.30;99.90;;;;;;5011525;28;19956;-84
2022/05/04 12:18:51;;;;;;;;;;;24.50;99.90;;;;;;5012978;28;19952;-83
2022/05/04 12:21:20;;;;;;;;;;;24.70;99.90;;;;;;5015571;28;19906;-83
2022/05/04 12:24:14;;;;;;;;;;;25.00;99.90;;;;;;5015107;28;19909;-82
2022/05/04 12:26:44;;;;;;;;;;;25.30;99.90;;;;;;5015533;28;19905;-83
2022/05/04 12:34:45;;;;;;;;;;;26.50;99.90;;;;;;5015380;28;19999;-82
2022/05/04 12:37:21;;;;;;;;;;;26.50;99.90;;;;;;5009239;28;19945;-79
2022/05/04 12:40:14;;;;;;;;;;;26.90;99.90;;;;;;5015701;28;19913;-79
2022/05/04 12:42:56;;;;;;;;;;;27.00;99.90;;;;;;5014934;28;19913;-79
2022/05/04 12:45:27;;;;;;;;;;;26.80;99.90;;;;;;5014875;28;20356;-80
2022/05/04 12:48:06;;;;;;;;;;;26.50;99.90;;;;;;5011857;28;19933;-80
2022/05/04 12:51:02;;;;;;;;;;;26.20;99.90;;;;;;5014894;28;19910;-80
2022/05/04 12:53:28;;;;;;;;;;;26.00;99.90;;;;;;4997055;28;19971;-79
2022/05/04 12:59:14;;;;;;;;;;;25.40;99.90;;;;;;5007612;28;19972;-81
2022/05/04 13:01:50;;;;;;;;;;;25.30;99.90;;;;;;5003099;28;19941;-81
2022/05/04 13:04:32;;;;;;;;;;;25.50;99.90;;;;;;5003677;28;19909;-81
2022/05/04 13:07:02;;;;;;;;;;;25.60;99.90;;;;;;5013213;28;20323;-81
2022/05/04 13:09:32;;;;;;;;;;;25.80;99.90;;;;;;4997066;28;20444;-81
2022/05/04 13:12:11;;;;;;;;;;;25.80;99.90;;;;;;5009113;28;20265;-80
2022/05/04 13:15:08;;;;;;;;;;;25.60;99.90;;;;;;5009841;28;19963;-84
2022/05/04 13:17:50;;;;;;;;;;;25.30;99.90;;;;;;5001460;28;19957;-85
2022/05/04 13:20:38;;;;;;;;;;;25.40;99.90;;;;;;4996885;28;19910;-84
2022/05/04 13:29:20;;;;;;;;;;;25.60;99.90;;;;;;5003621;28;19964;-84
2022/05/04 13:31:56;;;;;;;;;;;25.80;99.90;;;;;;4996642;28;19913;-82
2022/05/04 13:34:21;;;;;;;;;;;25.90;99.90;;;;;;4993894;28;19917;-82
2022/05/04 13:37:08;;;;;;;;;;;26.00;99.90;;;;;;5004256;28;19909;-84
2022/05/04 13:39:56;;;;;;;;;;;26.00;99.90;;;;;;5010012;28;19917;-82
2022/05/04 13:42:26;;;;;;;;;;;25.80;99.90;;;;;;4977554;28;19910;-85
2022/05/04 13:48:08;;;;;;;;;;;25.20;99.90;;;;;;4991221;28;19921;-87
2022/05/04 14:02:46;;;;;;;;;;;24.40;99.90;;;;;;4994304;28;19916;-85
2022/05/04 14:05:44;;;;;;;;;;;24.70;99.90;;;;;;4976936;28;19918;-84
2022/05/04 14:08:32;;;;;;;;;;;24.90;99.90;;;;;;4975679;28;19905;-85
2022/05/04 14:11:03;;;;;;;;;;;25.00;99.90;;;;;;4974925;28;19917;-83
2022/05/04 14:13:32;;;;;;;;;;;24.90;99.90;;;;;;4986606;28;19960;-84
2022/05/04 14:16:01;;;;;;;;;;;24.90;99.90;;;;;;5005560;28;20300;-85
2022/05/04 14:18:44;;;;;;;;;;;24.90;99.90;;;;;;5005564;28;19949;-83
2022/05/04 14:21:20;;;;;;;;;;;24.80;99.90;;;;;;4988326;28;19959;-86
2022/05/04 14:23:52;;;;;;;;;;;24.80;99.90;;;;;;4980823;28;19906;-76
2022/05/04 14:26:17;;;;;;;;;;;24.80;99.90;;;;;;4994246;28;19905;-75
2022/05/04 14:31:46;;;;;;;;;;;24.90;99.90;;;;;;5007087;28;19915;-81
2022/05/04 14:34:14;;;;;;;;;;;24.80;99.90;;;;;;5004255;28;19905;-79
2022/05/04 14:37:08;;;;;;;;;;;24.80;99.90;;;;;;5003284;28;19906;-83
2022/05/04 14:39:44;;;;;;;;;;;24.80;99.90;;;;;;4998478;28;19924;-83
2022/05/04 14:42:14;;;;;;;;;;;24.80;99.90;;;;;;5002923;28;19955;-83
2022/05/04 14:44:50;;;;;;;;;;;24.80;99.90;;;;;;4998096;28;19906;-83
2022/05/04 14:47:20;;;;;;;;;;;24.80;99.90;;;;;;4980448;28;19906;-84
2022/05/04 14:49:56;;;;;;;;;;;24.90;99.90;;;;;;5011237;28;20352;-85
2022/05/04 14:52:22;;;;;;;;;;;25.00;99.90;;;;;;5004857;28;19948;-85
2022/05/04 14:54:50;;;;;;;;;;;25.00;99.90;;;;;;5000913;28;19955;-86
2022/05/04 14:57:50;;;;;;;;;;;25.30;99.90;;;;;;5010413;28;19909;-86
2022/05/04 15:00:16;;;;;;;;;;;25.60;99.90;;;;;;4995843;28;19909;-75
2022/05/04 15:05:25;;;;;;;;;;;26.20;99.90;;;;;;5007323;28;20276;-73
2022/05/04 15:07:51;;;;;;;;;;;26.50;99.90;;;;;;5012760;28;19910;-71
2022/05/04 15:10:17;;;;;;;;;;;26.60;99.90;;;;;;4996755;28;19976;-72
2022/05/04 15:12:43;;;;;;;;;;;26.70;99.90;;;;;;5000186;28;19913;-73
2022/05/04 15:15:09;;;;;;;;;;;26.90;99.90;;;;;;5005486;28;19905;-73
2022/05/04 15:17:34;;;;;;;;;;;27.70;99.90;;;;;;4994220;28;19910;-73
2022/05/04 15:20:00;;;;;;;;;;;28.70;99.90;;;;;;5007331;28;19916;-79
2022/05/04 15:22:32;;;;;;;;;;;29.20;99.90;;;;;;5012372;28;19936;-77
2022/05/04 15:24:58;;;;;;;;;;;29.00;99.90;;;;;;4997066;28;19906;-77
2022/05/04 15:27:38;;;;;;;;;;;29.30;99.90;;;;;;5014881;28;19909;-77
2022/05/04 15:30:05;;;;;;;;;;;29.10;99.90;;;;;;4997535;28;20419;-73
2022/05/04 15:32:32;;;;;;;;;;;28.80;99.90;;;;;;4996121;28;19913;-74
2022/05/04 15:34:58;;;;;;;;;;;28.30;99.90;;;;;;4996005;28;19909;-73
2022/05/04 15:37:23;;;;;;;;;;;27.70;99.90;;;;;;4996007;28;19913;-73
2022/05/04 15:39:49;;;;;;;;;;;27.30;99.90;;;;;;4996375;28;19921;-73
2022/05/04 15:42:16;;;;;;;;;;;26.90;99.90;;;;;;4977345;28;19928;-81
2022/05/04 15:44:42;;;;;;;;;;;26.50;99.90;;;;;;4977867;28;19906;-71
2022/05/04 15:47:08;;;;;;;;;;;26.20;99.90;;;;;;5009803;28;20430;-86
2022/05/04 15:49:39;;;;;;;;;;;25.80;99.90;;;;;;5003066;28;19913;-80
2022/05/04 15:52:08;;;;;;;;;;;25.50;99.90;;;;;;5016147;28;19909;-79
2022/05/04 15:54:44;;;;;;;;;;;25.00;99.90;;;;;;5000838;28;20004;-79
2022/05/04 15:57:15;;;;;;;;;;;24.70;99.90;;;;;;4996265;28;20403;-80
2022/05/04 15:59:44;;;;;;;;;;;24.40;99.90;;;;;;4996517;28;19916;-74
2022/05/04 16:02:14;;;;;;;;;;;24.30;99.90;;;;;;4996562;28;19906;-80
2022/05/04 16:22:50;;;;;;;;;;;22.10;99.90;;;;;;5091705;28;19930;-74
2022/05/04 16:25:16;;;;;;;;;;;22.00;99.90;;;;;;5091873;28;19916;-74
2022/05/04 16:27:44;;;;;;;;;;;22.00;99.90;;;;;;5097664;28;19916;-75
2022/05/04 16:30:11;;;;;;;;;;;22.00;99.90;;;;;;5094768;28;19915;-74
2022/05/04 16:32:37;;;;;;;;;;;21.90;99.90;;;;;;5091457;28;19913;-74
2022/05/04 16:35:03;;;;;;;;;;;21.90;99.90;;;;;;5089796;28;19912;-74
2022/05/04 16:37:33;;;;;;;;;;;21.70;99.90;;;;;;5092245;28;19986;-74
2022/05/04 16:40:02;;;;;;;;;;;21.70;99.90;;;;;;5105090;28;19946;-75
2022/05/04 16:42:28;;;;;;;;;;;21.60;99.90;;;;;;5109154;28;19912;-76
2022/05/04 16:44:53;;;;;;;;;;;21.40;99.90;;;;;;5110927;28;19958;-84
2022/05/04 16:47:26;;;;;;;;;;;21.10;99.90;;;;;;5099022;28;20274;-82
2022/05/04 16:49:56;;;;;;;;;;;20.90;99.90;;;;;;5091479;28;19916;-79
2022/05/04 16:52:40;;;;;;;;;;;20.70;99.90;;;;;;5097406;28;20405;-81
2022/05/04 16:55:10;;;;;;;;;;;20.60;99.90;;;;;;5090756;28;19912;-78
2022/05/04 16:57:35;;;;;;;;;;;20.40;99.90;;;;;;5102751;28;20382;-78
2022/05/04 17:03:21;;;;;;;;;;;20.10;99.90;;;;;;5108366;28;19919;-83
2022/05/04 17:06:09;;;;;;;;;;;19.90;99.90;;;;;;5105432;28;19912;-82
2022/05/04 17:08:39;;;;;;;;;;;19.80;99.90;;;;;;5106455;28;20278;-83
2022/05/04 17:11:14;;;;;;;;;;;19.50;99.90;;;;;;5092891;28;20014;-84
2022/05/04 17:16:43;;;;;;;;;;;19.30;99.90;;;;;;5090842;28;19928;-81
2022/05/04 17:19:26;;;;;;;;;;;19.30;99.90;;;;;;5089616;28;19912;-81
2022/05/04 17:21:56;;;;;;;;;;;19.30;99.90;;;;;;5090910;28;19954;-80
2022/05/04 17:24:26;;;;;;;;;;;19.20;99.90;;;;;;5090298;28;19912;-81
2022/05/04 17:26:56;;;;;;;;;;;19.20;99.90;;;;;;5086721;28;20560;-80
2022/05/04 17:29:22;;;;;;;;;;;19.10;99.90;;;;;;5081654;28;19920;-79
2022/05/04 17:38:40;;;;;;;;;;;18.80;99.90;;;;;;5089191;28;19986;-89
2022/05/04 17:41:30;;;;;;;;;;;18.60;99.90;;;;;;5077588;28;20359;-88
2022/05/04 17:44:20;;;;;;;;;;;18.60;99.90;;;;;;5111484;27;19920;-88
2022/05/04 17:46:50;;;;;;;;;;;18.40;99.90;;;;;;5078993;28;20367;-81
2022/05/04 17:49:38;;;;;;;;;;;18.40;99.90;;;;;;5091093;28;20053;-81
2022/05/04 17:52:04;;;;;;;;;;;18.20;99.90;;;;;;5096036;28;19920;-81
2022/05/04 17:54:39;;;;;;;;;;;18.10;99.90;;;;;;5080825;28;19912;-80
2022/05/04 17:57:04;;;;;;;;;;;18.10;99.90;;;;;;5076986;28;20342;-80
2022/05/04 17:59:38;;;;;;;;;;;18.00;99.90;;;;;;5075166;28;19947;-81
2022/05/04 18:05:14;;;;;;;;;;;17.90;99.90;;;;;;5080913;28;19962;-79
2022/05/04 18:08:08;;;;;;;;;;;17.80;99.90;;;;;;5087900;28;20003;-80
2022/05/04 18:10:38;;;;;;;;;;;17.60;99.90;;;;;;5076081;28;20363;-78